sensor_id;sensor_type;location;lat;lon;timestamp;P1;durP1;ratioP1;P2;durP2;ratioP2
9986;SDS011;5033;46.310;11.214;2023-05-03T00:01:55;1.30;;;1.30;;
9986;SDS011;5033;46.310;11.214;2023-05-03T00:04:24;1.30;;;1.30;;
9986;SDS011;5033;46.310;11.214;2023-05-03T00:06:51;1.10;;;1.10;;
9986;SDS011;5033;46.310;11.214;2023-05-03T00:09:18;1.50;;;1.50;;
9986;SDS011;5033;46.310;11.214;2023-05-03T00:11:46;1.50;;;1.40;;
9986;SDS011;5033;46.310;11.214;2023-05-03T00:14:13;1.27;;;1.27;;
9986;SDS011;5033;46.310;11.214;2023-05-03T00:16:40;1.40;;;1.40;;
9986;SDS011;5033;46.310;11.214;2023-05-03T00:19:08;2.00;;;1.30;;
9986;SDS011;5033;46.310;11.214;2023-05-03T00:21:36;1.40;;;1.40;;
9986;SDS011;5033;46.310;11.214;2023-05-03T00:24:03;1.30;;;1.30;;
9986;SDS011;5033;46.310;11.214;2023-05-03T00:26:31;1.83;;;1.33;;
9986;SDS011;5033;46.310;11.214;2023-05-03T00:28:58;2.10;;;1.25;;
9986;SDS011;5033;46.310;11.214;2023-05-03T00:31:25;1.30;;;1.30;;
9986;SDS011;5033;46.310;11.214;2023-05-03T00:33:52;1.48;;;1.48;;
9986;SDS011;5033;46.310;11.214;2023-05-03T00:36:19;1.60;;;1.50;;
9986;SDS011;5033;46.310;11.214;2023-05-03T00:38:47;1.40;;;1.38;;
9986;SDS011;5033;46.310;11.214;2023-05-03T00:41:15;1.40;;;1.40;;
9986;SDS011;5033;46.310;11.214;2023-05-03T00:43:42;1.25;;;1.25;;
9986;SDS011;5033;46.310;11.214;2023-05-03T00:46:09;1.63;;;1.52;;
9986;SDS011;5033;46.310;11.214;2023-05-03T00:48:36;1.63;;;1.52;;
9986;SDS011;5033;46.310;11.214;2023-05-03T00:51:03;1.42;;;1.30;;
9986;SDS011;5033;46.310;11.214;2023-05-03T00:53:31;1.10;;;1.10;;
9986;SDS011;5033;46.310;11.214;2023-05-03T00:56:00;1.23;;;1.23;;
9986;SDS011;5033;46.310;11.214;2023-05-03T00:58:29;1.50;;;1.50;;
9986;SDS011;5033;46.310;11.214;2023-05-03T01:00:59;1.30;;;1.30;;
9986;SDS011;5033;46.310;11.214;2023-05-03T01:03:28;1.35;;;1.35;;
9986;SDS011;5033;46.310;11.214;2023-05-03T01:05:57;1.35;;;1.35;;
9986;SDS011;5033;46.310;11.214;2023-05-03T01:08:36;1.20;;;1.20;;
9986;SDS011;5033;46.310;11.214;2023-05-03T01:11:10;1.10;;;1.10;;
9986;SDS011;5033;46.310;11.214;2023-05-03T01:13:46;1.30;;;1.30;;
9986;SDS011;5033;46.310;11.214;2023-05-03T01:16:23;1.52;;;1.35;;
9986;SDS011;5033;46.310;11.214;2023-05-03T01:18:56;1.15;;;1.15;;
9986;SDS011;5033;46.310;11.214;2023-05-03T01:21:29;1.40;;;1.40;;
9986;SDS011;5033;46.310;11.214;2023-05-03T01:23:58;1.20;;;1.20;;
9986;SDS011;5033;46.310;11.214;2023-05-03T01:26:31;1.65;;;1.60;;
9986;SDS011;5033;46.310;11.214;2023-05-03T01:28:58;1.65;;;1.55;;
9986;SDS011;5033;46.310;11.214;2023-05-03T01:31:27;1.23;;;1.23;;
9986;SDS011;5033;46.310;11.214;2023-05-03T01:34:04;1.38;;;1.30;;
9986;SDS011;5033;46.310;11.214;2023-05-03T01:36:40;1.45;;;1.40;;
9986;SDS011;5033;46.310;11.214;2023-05-03T01:39:09;1.45;;;1.45;;
9986;SDS011;5033;46.310;11.214;2023-05-03T01:41:42;1.30;;;1.30;;
9986;SDS011;5033;46.310;11.214;2023-05-03T01:44:11;1.25;;;1.25;;
9986;SDS011;5033;46.310;11.214;2023-05-03T01:46:42;1.30;;;1.30;;
9986;SDS011;5033;46.310;11.214;2023-05-03T01:49:09;1.85;;;1.52;;
9986;SDS011;5033;46.310;11.214;2023-05-03T01:51:36;1.48;;;1.48;;
9986;SDS011;5033;46.310;11.214;2023-05-03T01:54:03;1.40;;;1.40;;
9986;SDS011;5033;46.310;11.214;2023-05-03T01:56:33;1.30;;;1.30;;
9986;SDS011;5033;46.310;11.214;2023-05-03T01:59:02;1.85;;;1.30;;
9986;SDS011;5033;46.310;11.214;2023-05-03T02:01:29;1.00;;;1.00;;
9986;SDS011;5033;46.310;11.214;2023-05-03T02:03:56;1.40;;;1.40;;
9986;SDS011;5033;46.310;11.214;2023-05-03T02:06:23;1.40;;;1.40;;
9986;SDS011;5033;46.310;11.214;2023-05-03T02:08:50;1.40;;;1.40;;
9986;SDS011;5033;46.310;11.214;2023-05-03T02:11:17;1.40;;;1.35;;
9986;SDS011;5033;46.310;11.214;2023-05-03T02:13:46;1.20;;;1.20;;
9986;SDS011;5033;46.310;11.214;2023-05-03T02:16:15;1.50;;;1.40;;
9986;SDS011;5033;46.310;11.214;2023-05-03T02:18:42;1.30;;;1.30;;
9986;SDS011;5033;46.310;11.214;2023-05-03T02:21:09;1.60;;;1.60;;
9986;SDS011;5033;46.310;11.214;2023-05-03T02:23:37;1.60;;;1.50;;
9986;SDS011;5033;46.310;11.214;2023-05-03T02:26:04;1.38;;;1.38;;
9986;SDS011;5033;46.310;11.214;2023-05-03T02:28:32;1.60;;;1.60;;
9986;SDS011;5033;46.310;11.214;2023-05-03T02:31:00;1.40;;;1.30;;
9986;SDS011;5033;46.310;11.214;2023-05-03T02:33:31;1.67;;;1.58;;
9986;SDS011;5033;46.310;11.214;2023-05-03T02:35:58;1.30;;;1.30;;
9986;SDS011;5033;46.310;11.214;2023-05-03T02:38:25;1.40;;;1.40;;
9986;SDS011;5033;46.310;11.214;2023-05-03T02:40:52;1.48;;;1.40;;
9986;SDS011;5033;46.310;11.214;2023-05-03T02:43:19;1.58;;;1.58;;
9986;SDS011;5033;46.310;11.214;2023-05-03T02:45:46;1.27;;;1.27;;
9986;SDS011;5033;46.310;11.214;2023-05-03T02:48:13;1.42;;;1.42;;
9986;SDS011;5033;46.310;11.214;2023-05-03T02:50:42;1.40;;;1.40;;
9986;SDS011;5033;46.310;11.214;2023-05-03T02:53:08;1.30;;;1.30;;
9986;SDS011;5033;46.310;11.214;2023-05-03T02:55:35;1.35;;;1.35;;
9986;SDS011;5033;46.310;11.214;2023-05-03T02:58:02;1.45;;;1.45;;
9986;SDS011;5033;46.310;11.214;2023-05-03T03:00:30;1.40;;;1.40;;
9986;SDS011;5033;46.310;11.214;2023-05-03T03:02:57;1.60;;;1.60;;
9986;SDS011;5033;46.310;11.214;2023-05-03T03:05:23;1.33;;;1.33;;
9986;SDS011;5033;46.310;11.214;2023-05-03T03:07:52;1.50;;;1.40;;
9986;SDS011;5033;46.310;11.214;2023-05-03T03:10:19;1.35;;;1.35;;
9986;SDS011;5033;46.310;11.214;2023-05-03T03:12:46;1.67;;;1.60;;
9986;SDS011;5033;46.310;11.214;2023-05-03T03:15:13;1.48;;;1.38;;
9986;SDS011;5033;46.310;11.214;2023-05-03T03:17:40;1.77;;;1.67;;
9986;SDS011;5033;46.310;11.214;2023-05-03T03:20:07;1.33;;;1.33;;
9986;SDS011;5033;46.310;11.214;2023-05-03T03:22:35;1.40;;;1.40;;
9986;SDS011;5033;46.310;11.214;2023-05-03T03:25:06;1.60;;;1.60;;
9986;SDS011;5033;46.310;11.214;2023-05-03T03:27:33;1.30;;;1.30;;
9986;SDS011;5033;46.310;11.214;2023-05-03T03:30:00;1.58;;;1.58;;
9986;SDS011;5033;46.310;11.214;2023-05-03T03:32:28;1.40;;;1.40;;
9986;SDS011;5033;46.310;11.214;2023-05-03T03:34:55;1.63;;;1.52;;
9986;SDS011;5033;46.310;11.214;2023-05-03T03:37:21;1.50;;;1.40;;
9986;SDS011;5033;46.310;11.214;2023-05-03T03:39:48;1.58;;;1.58;;
9986;SDS011;5033;46.310;11.214;2023-05-03T03:42:17;1.85;;;1.75;;
9986;SDS011;5033;46.310;11.214;2023-05-03T03:44:44;1.63;;;1.52;;
9986;SDS011;5033;46.310;11.214;2023-05-03T03:47:11;1.85;;;1.75;;
9986;SDS011;5033;46.310;11.214;2023-05-03T03:49:38;2.05;;;1.70;;
9986;SDS011;5033;46.310;11.214;2023-05-03T03:52:05;1.70;;;1.70;;
9986;SDS011;5033;46.310;11.214;2023-05-03T03:54:32;1.90;;;1.80;;
9986;SDS011;5033;46.310;11.214;2023-05-03T03:57:00;1.48;;;1.48;;
9986;SDS011;5033;46.310;11.214;2023-05-03T03:59:28;1.85;;;1.75;;
9986;SDS011;5033;46.310;11.214;2023-05-03T04:01:56;1.70;;;1.60;;
9986;SDS011;5033;46.310;11.214;2023-05-03T04:04:23;1.83;;;1.73;;
9986;SDS011;5033;46.310;11.214;2023-05-03T04:06:50;1.67;;;1.58;;
9986;SDS011;5033;46.310;11.214;2023-05-03T04:09:18;1.50;;;1.50;;
9986;SDS011;5033;46.310;11.214;2023-05-03T04:11:45;1.60;;;1.60;;
9986;SDS011;5033;46.310;11.214;2023-05-03T04:14:12;1.75;;;1.65;;
9986;SDS011;5033;46.310;11.214;2023-05-03T04:16:41;1.67;;;1.60;;
9986;SDS011;5033;46.310;11.214;2023-05-03T04:19:08;1.55;;;1.50;;
9986;SDS011;5033;46.310;11.214;2023-05-03T04:21:35;1.90;;;1.80;;
9986;SDS011;5033;46.310;11.214;2023-05-03T04:24:01;1.60;;;1.58;;
9986;SDS011;5033;46.310;11.214;2023-05-03T04:26:30;1.70;;;1.60;;
9986;SDS011;5033;46.310;11.214;2023-05-03T04:28:57;1.80;;;1.70;;
9986;SDS011;5033;46.310;11.214;2023-05-03T04:31:24;1.80;;;1.70;;
9986;SDS011;5033;46.310;11.214;2023-05-03T04:33:53;1.83;;;1.73;;
9986;SDS011;5033;46.310;11.214;2023-05-03T04:36:20;1.67;;;1.58;;
9986;SDS011;5033;46.310;11.214;2023-05-03T04:38:50;1.80;;;1.70;;
9986;SDS011;5033;46.310;11.214;2023-05-03T04:41:17;1.50;;;1.50;;
9986;SDS011;5033;46.310;11.214;2023-05-03T04:43:44;1.73;;;1.60;;
9986;SDS011;5033;46.310;11.214;2023-05-03T04:46:11;1.50;;;1.50;;
9986;SDS011;5033;46.310;11.214;2023-05-03T04:48:38;1.90;;;1.80;;
9986;SDS011;5033;46.310;11.214;2023-05-03T04:51:08;1.85;;;1.75;;
9986;SDS011;5033;46.310;11.214;2023-05-03T04:53:34;1.88;;;1.77;;
9986;SDS011;5033;46.310;11.214;2023-05-03T04:56:01;1.63;;;1.58;;
9986;SDS011;5033;46.310;11.214;2023-05-03T04:58:29;1.55;;;1.45;;
9986;SDS011;5033;46.310;11.214;2023-05-03T05:00:56;1.85;;;1.75;;
9986;SDS011;5033;46.310;11.214;2023-05-03T05:03:22;1.63;;;1.52;;
9986;SDS011;5033;46.310;11.214;2023-05-03T05:05:50;1.77;;;1.67;;
9986;SDS011;5033;46.310;11.214;2023-05-03T05:08:18;1.67;;;1.58;;
9986;SDS011;5033;46.310;11.214;2023-05-03T05:10:45;1.90;;;1.80;;
9986;SDS011;5033;46.310;11.214;2023-05-03T05:13:12;1.80;;;1.70;;
9986;SDS011;5033;46.310;11.214;2023-05-03T05:15:40;1.83;;;1.73;;
9986;SDS011;5033;46.310;11.214;2023-05-03T05:18:06;1.70;;;1.60;;
9986;SDS011;5033;46.310;11.214;2023-05-03T05:20:34;1.80;;;1.70;;
9986;SDS011;5033;46.310;11.214;2023-05-03T05:23:01;1.55;;;1.50;;
9986;SDS011;5033;46.310;11.214;2023-05-03T05:25:29;1.42;;;1.40;;
9986;SDS011;5033;46.310;11.214;2023-05-03T05:27:56;2.65;;;2.05;;
9986;SDS011;5033;46.310;11.214;2023-05-03T05:30:23;1.85;;;1.75;;
9986;SDS011;5033;46.310;11.214;2023-05-03T05:32:50;2.20;;;2.05;;
9986;SDS011;5033;46.310;11.214;2023-05-03T05:35:19;1.75;;;1.65;;
9986;SDS011;5033;46.310;11.214;2023-05-03T05:37:46;1.67;;;1.58;;
9986;SDS011;5033;46.310;11.214;2023-05-03T05:40:13;2.25;;;2.15;;
9986;SDS011;5033;46.310;11.214;2023-05-03T05:47:52;2.42;;;2.22;;
9986;SDS011;5033;46.310;11.214;2023-05-03T05:50:19;2.13;;;2.03;;
9986;SDS011;5033;46.310;11.214;2023-05-03T05:52:46;1.80;;;1.70;;
9986;SDS011;5033;46.310;11.214;2023-05-03T05:55:14;2.10;;;2.00;;
9986;SDS011;5033;46.310;11.214;2023-05-03T05:57:41;2.30;;;2.20;;
9986;SDS011;5033;46.310;11.214;2023-05-03T06:00:08;2.28;;;1.48;;
9986;SDS011;5033;46.310;11.214;2023-05-03T06:02:38;1.65;;;1.55;;
9986;SDS011;5033;46.310;11.214;2023-05-03T06:05:07;1.67;;;1.58;;
9986;SDS011;5033;46.310;11.214;2023-05-03T06:07:35;1.83;;;1.70;;
9986;SDS011;5033;46.310;11.214;2023-05-03T06:10:02;1.65;;;1.58;;
9986;SDS011;5033;46.310;11.214;2023-05-03T06:12:30;2.00;;;1.90;;
9986;SDS011;5033;46.310;11.214;2023-05-03T06:14:57;1.80;;;1.70;;
9986;SDS011;5033;46.310;11.214;2023-05-03T06:17:24;1.98;;;1.85;;
9986;SDS011;5033;46.310;11.214;2023-05-03T06:19:51;1.70;;;1.60;;
9986;SDS011;5033;46.310;11.214;2023-05-03T06:22:19;3.58;;;1.60;;
9986;SDS011;5033;46.310;11.214;2023-05-03T06:24:46;1.70;;;1.60;;
9986;SDS011;5033;46.310;11.214;2023-05-03T06:27:13;1.75;;;1.65;;
9986;SDS011;5033;46.310;11.214;2023-05-03T06:29:40;1.52;;;1.42;;
9986;SDS011;5033;46.310;11.214;2023-05-03T06:32:08;2.35;;;1.50;;
9986;SDS011;5033;46.310;11.214;2023-05-03T06:34:35;3.28;;;2.10;;
9986;SDS011;5033;46.310;11.214;2023-05-03T06:37:02;1.60;;;1.50;;
9986;SDS011;5033;46.310;11.214;2023-05-03T06:39:30;1.65;;;1.55;;
9986;SDS011;5033;46.310;11.214;2023-05-03T06:41:57;1.80;;;1.70;;
9986;SDS011;5033;46.310;11.214;2023-05-03T06:44:25;1.73;;;1.63;;
9986;SDS011;5033;46.310;11.214;2023-05-03T06:46:52;1.60;;;1.50;;
9986;SDS011;5033;46.310;11.214;2023-05-03T06:49:19;1.75;;;1.65;;
9986;SDS011;5033;46.310;11.214;2023-05-03T06:51:46;1.33;;;1.25;;
9986;SDS011;5033;46.310;11.214;2023-05-03T06:54:13;1.80;;;1.50;;
9986;SDS011;5033;46.310;11.214;2023-05-03T06:56:41;1.67;;;1.30;;
9986;SDS011;5033;46.310;11.214;2023-05-03T06:59:08;1.73;;;1.63;;
9986;SDS011;5033;46.310;11.214;2023-05-03T07:01:35;1.90;;;1.80;;
9986;SDS011;5033;46.310;11.214;2023-05-03T07:04:02;1.50;;;1.40;;
9986;SDS011;5033;46.310;11.214;2023-05-03T07:06:29;1.63;;;1.52;;
9986;SDS011;5033;46.310;11.214;2023-05-03T07:08:56;2.22;;;1.50;;
9986;SDS011;5033;46.310;11.214;2023-05-03T07:11:23;1.50;;;1.40;;
9986;SDS011;5033;46.310;11.214;2023-05-03T07:13:52;2.00;;;1.67;;
9986;SDS011;5033;46.310;11.214;2023-05-03T07:16:19;1.70;;;1.60;;
9986;SDS011;5033;46.310;11.214;2023-05-03T07:18:47;1.70;;;1.60;;
9986;SDS011;5033;46.310;11.214;2023-05-03T07:21:14;1.70;;;1.60;;
9986;SDS011;5033;46.310;11.214;2023-05-03T07:23:43;1.70;;;1.48;;
9986;SDS011;5033;46.310;11.214;2023-05-03T07:26:10;1.70;;;1.60;;
9986;SDS011;5033;46.310;11.214;2023-05-03T07:28:36;1.30;;;1.20;;
9986;SDS011;5033;46.310;11.214;2023-05-03T07:31:05;1.70;;;1.60;;
9986;SDS011;5033;46.310;11.214;2023-05-03T07:33:32;1.83;;;1.73;;
9986;SDS011;5033;46.310;11.214;2023-05-03T07:36:01;2.05;;;1.50;;
9986;SDS011;5033;46.310;11.214;2023-05-03T07:38:28;1.45;;;1.35;;
9986;SDS011;5033;46.310;11.214;2023-05-03T07:40:55;1.70;;;1.60;;
9986;SDS011;5033;46.310;11.214;2023-05-03T07:43:22;1.60;;;1.50;;
9986;SDS011;5033;46.310;11.214;2023-05-03T07:45:48;1.63;;;1.52;;
9986;SDS011;5033;46.310;11.214;2023-05-03T07:48:17;1.73;;;1.30;;
9986;SDS011;5033;46.310;11.214;2023-05-03T07:50:44;1.52;;;1.42;;
9986;SDS011;5033;46.310;11.214;2023-05-03T07:53:11;1.70;;;1.48;;
9986;SDS011;5033;46.310;11.214;2023-05-03T07:55:38;1.40;;;1.30;;
9986;SDS011;5033;46.310;11.214;2023-05-03T07:58:05;1.60;;;1.50;;
9986;SDS011;5033;46.310;11.214;2023-05-03T08:00:32;1.38;;;1.38;;
9986;SDS011;5033;46.310;11.214;2023-05-03T08:02:59;1.48;;;1.38;;
9986;SDS011;5033;46.310;11.214;2023-05-03T08:05:29;1.45;;;1.38;;
9986;SDS011;5033;46.310;11.214;2023-05-03T08:07:56;1.25;;;1.25;;
9986;SDS011;5033;46.310;11.214;2023-05-03T08:10:23;1.63;;;1.52;;
9986;SDS011;5033;46.310;11.214;2023-05-03T08:12:50;1.40;;;1.40;;
9986;SDS011;5033;46.310;11.214;2023-05-03T08:15:17;1.48;;;1.38;;
9986;SDS011;5033;46.310;11.214;2023-05-03T08:17:44;1.60;;;1.50;;
9986;SDS011;5033;46.310;11.214;2023-05-03T08:20:11;1.33;;;1.33;;
9986;SDS011;5033;46.310;11.214;2023-05-03T08:22:41;1.08;;;1.08;;
9986;SDS011;5033;46.310;11.214;2023-05-03T08:25:10;1.48;;;1.38;;
9986;SDS011;5033;46.310;11.214;2023-05-03T08:27:37;1.30;;;1.20;;
9986;SDS011;5033;46.310;11.214;2023-05-03T08:30:04;1.50;;;1.40;;
9986;SDS011;5033;46.310;11.214;2023-05-03T08:32:32;1.23;;;1.10;;
9986;SDS011;5033;46.310;11.214;2023-05-03T08:34:59;1.27;;;1.20;;
9986;SDS011;5033;46.310;11.214;2023-05-03T08:37:36;1.17;;;1.17;;
9986;SDS011;5033;46.310;11.214;2023-05-03T08:40:05;1.63;;;1.50;;
9986;SDS011;5033;46.310;11.214;2023-05-03T08:42:37;1.30;;;1.27;;
9986;SDS011;5033;46.310;11.214;2023-05-03T08:45:07;1.05;;;1.02;;
9986;SDS011;5033;46.310;11.214;2023-05-03T08:47:36;1.55;;;1.45;;
9986;SDS011;5033;46.310;11.214;2023-05-03T08:50:06;1.20;;;1.20;;
9986;SDS011;5033;46.310;11.214;2023-05-03T09:00:14;1.10;;;1.10;;
9986;SDS011;5033;46.310;11.214;2023-05-03T09:02:43;1.40;;;1.30;;
9986;SDS011;5033;46.310;11.214;2023-05-03T09:07:59;1.30;;;1.20;;
9986;SDS011;5033;46.310;11.214;2023-05-03T09:10:27;1.23;;;1.13;;
9986;SDS011;5033;46.310;11.214;2023-05-03T09:12:57;3.30;;;1.33;;
9986;SDS011;5033;46.310;11.214;2023-05-03T09:15:26;1.92;;;1.40;;
9986;SDS011;5033;46.310;11.214;2023-05-03T09:18:11;1.60;;;1.50;;
9986;SDS011;5033;46.310;11.214;2023-05-03T09:20:40;1.50;;;1.40;;
9986;SDS011;5033;46.310;11.214;2023-05-03T09:23:15;1.33;;;1.27;;
9986;SDS011;5033;46.310;11.214;2023-05-03T09:25:43;1.33;;;1.23;;
9986;SDS011;5033;46.310;11.214;2023-05-03T09:28:11;2.83;;;1.50;;
9986;SDS011;5033;46.310;11.214;2023-05-03T09:30:40;1.90;;;1.20;;
9986;SDS011;5033;46.310;11.214;2023-05-03T09:33:07;1.70;;;1.20;;
9986;SDS011;5033;46.310;11.214;2023-05-03T09:35:35;1.05;;;1.02;;
9986;SDS011;5033;46.310;11.214;2023-05-03T09:38:02;1.98;;;1.40;;
9986;SDS011;5033;46.310;11.214;2023-05-03T09:40:30;1.70;;;1.40;;
9986;SDS011;5033;46.310;11.214;2023-05-03T09:43:06;1.30;;;1.20;;
9986;SDS011;5033;46.310;11.214;2023-05-03T09:45:34;1.48;;;1.23;;
9986;SDS011;5033;46.310;11.214;2023-05-03T09:48:05;1.23;;;1.10;;
9986;SDS011;5033;46.310;11.214;2023-05-03T09:50:33;1.45;;;1.10;;
9986;SDS011;5033;46.310;11.214;2023-05-03T09:53:01;1.33;;;1.10;;
9986;SDS011;5033;46.310;11.214;2023-05-03T09:55:30;1.75;;;1.00;;
9986;SDS011;5033;46.310;11.214;2023-05-03T09:57:59;1.42;;;1.33;;
9986;SDS011;5033;46.310;11.214;2023-05-03T10:00:30;1.13;;;1.10;;
9986;SDS011;5033;46.310;11.214;2023-05-03T10:03:06;1.20;;;1.20;;
9986;SDS011;5033;46.310;11.214;2023-05-03T10:05:35;1.20;;;1.10;;
9986;SDS011;5033;46.310;11.214;2023-05-03T10:08:08;1.30;;;1.30;;
9986;SDS011;5033;46.310;11.214;2023-05-03T10:10:38;1.15;;;1.13;;
9986;SDS011;5033;46.310;11.214;2023-05-03T10:13:07;1.13;;;1.02;;
9986;SDS011;5033;46.310;11.214;2023-05-03T10:15:34;0.98;;;0.98;;
9986;SDS011;5033;46.310;11.214;2023-05-03T10:18:02;1.25;;;1.10;;
9986;SDS011;5033;46.310;11.214;2023-05-03T10:20:34;1.38;;;1.27;;
9986;SDS011;5033;46.310;11.214;2023-05-03T10:23:09;1.85;;;1.15;;
9986;SDS011;5033;46.310;11.214;2023-05-03T10:25:39;1.23;;;1.13;;
9986;SDS011;5033;46.310;11.214;2023-05-03T10:28:31;0.90;;;0.90;;
9986;SDS011;5033;46.310;11.214;2023-05-03T10:30:59;2.10;;;1.77;;
9986;SDS011;5033;46.310;11.214;2023-05-03T10:33:31;1.88;;;1.25;;
9986;SDS011;5033;46.310;11.214;2023-05-03T10:36:03;1.20;;;1.20;;
9986;SDS011;5033;46.310;11.214;2023-05-03T10:38:30;1.00;;;1.00;;
9986;SDS011;5033;46.310;11.214;2023-05-03T10:43:42;1.58;;;1.10;;
9986;SDS011;5033;46.310;11.214;2023-05-03T10:49:20;0.95;;;0.95;;
9986;SDS011;5033;46.310;11.214;2023-05-03T10:51:48;0.93;;;0.93;;
9986;SDS011;5033;46.310;11.214;2023-05-03T10:54:15;1.48;;;1.15;;
9986;SDS011;5033;46.310;11.214;2023-05-03T10:56:49;1.10;;;1.10;;
9986;SDS011;5033;46.310;11.214;2023-05-03T10:59:17;2.40;;;1.15;;
9986;SDS011;5033;46.310;11.214;2023-05-03T11:01:45;1.00;;;1.00;;
9986;SDS011;5033;46.310;11.214;2023-05-03T11:04:17;0.98;;;0.98;;
9986;SDS011;5033;46.310;11.214;2023-05-03T11:06:53;0.90;;;0.90;;
9986;SDS011;5033;46.310;11.214;2023-05-03T11:09:28;1.08;;;0.95;;
9986;SDS011;5033;46.310;11.214;2023-05-03T11:11:57;0.98;;;0.98;;
9986;SDS011;5033;46.310;11.214;2023-05-03T11:14:24;1.35;;;1.10;;
9986;SDS011;5033;46.310;11.214;2023-05-03T11:16:51;0.98;;;0.98;;
9986;SDS011;5033;46.310;11.214;2023-05-03T11:19:22;1.05;;;0.90;;
9986;SDS011;5033;46.310;11.214;2023-05-03T11:21:51;0.95;;;0.95;;
9986;SDS011;5033;46.310;11.214;2023-05-03T11:24:19;1.23;;;0.90;;
9986;SDS011;5033;46.310;11.214;2023-05-03T11:26:46;0.93;;;0.93;;
9986;SDS011;5033;46.310;11.214;2023-05-03T11:29:13;0.82;;;0.82;;
9986;SDS011;5033;46.310;11.214;2023-05-03T11:31:41;1.38;;;0.90;;
9986;SDS011;5033;46.310;11.214;2023-05-03T11:34:08;0.90;;;0.90;;
9986;SDS011;5033;46.310;11.214;2023-05-03T11:36:38;1.33;;;0.90;;
9986;SDS011;5033;46.310;11.214;2023-05-03T11:39:06;1.15;;;0.95;;
9986;SDS011;5033;46.310;11.214;2023-05-03T11:41:33;0.80;;;0.80;;
9986;SDS011;5033;46.310;11.214;2023-05-03T11:44:01;2.25;;;0.90;;
9986;SDS011;5033;46.310;11.214;2023-05-03T11:46:30;0.88;;;0.85;;
9986;SDS011;5033;46.310;11.214;2023-05-03T11:49:00;0.80;;;0.80;;
9986;SDS011;5033;46.310;11.214;2023-05-03T11:51:28;0.85;;;0.85;;
9986;SDS011;5033;46.310;11.214;2023-05-03T11:53:59;0.77;;;0.77;;
9986;SDS011;5033;46.310;11.214;2023-05-03T11:56:27;0.70;;;0.70;;
9986;SDS011;5033;46.310;11.214;2023-05-03T11:58:55;0.63;;;0.63;;
9986;SDS011;5033;46.310;11.214;2023-05-03T12:09:13;0.70;;;0.70;;
9986;SDS011;5033;46.310;11.214;2023-05-03T12:22:20;0.70;;;0.70;;
9986;SDS011;5033;46.310;11.214;2023-05-03T12:24:49;0.80;;;0.80;;
9986;SDS011;5033;46.310;11.214;2023-05-03T12:27:16;0.70;;;0.70;;
9986;SDS011;5033;46.310;11.214;2023-05-03T12:29:43;0.70;;;0.70;;
9986;SDS011;5033;46.310;11.214;2023-05-03T12:32:10;0.80;;;0.80;;
9986;SDS011;5033;46.310;11.214;2023-05-03T12:34:37;1.05;;;0.95;;
9986;SDS011;5033;46.310;11.214;2023-05-03T12:37:04;0.70;;;0.70;;
9986;SDS011;5033;46.310;11.214;2023-05-03T12:39:33;0.80;;;0.80;;
9986;SDS011;5033;46.310;11.214;2023-05-03T12:42:01;0.60;;;0.60;;
9986;SDS011;5033;46.310;11.214;2023-05-03T12:44:29;0.75;;;0.75;;
9986;SDS011;5033;46.310;11.214;2023-05-03T12:46:56;0.70;;;0.70;;
9986;SDS011;5033;46.310;11.214;2023-05-03T12:49:23;0.70;;;0.70;;
9986;SDS011;5033;46.310;11.214;2023-05-03T12:51:50;0.80;;;0.80;;
9986;SDS011;5033;46.310;11.214;2023-05-03T12:54:19;0.65;;;0.65;;
9986;SDS011;5033;46.310;11.214;2023-05-03T12:56:46;0.77;;;0.77;;
9986;SDS011;5033;46.310;11.214;2023-05-03T12:59:15;0.75;;;0.70;;
9986;SDS011;5033;46.310;11.214;2023-05-03T13:01:41;0.70;;;0.70;;
9986;SDS011;5033;46.310;11.214;2023-05-03T13:04:09;1.17;;;0.70;;
9986;SDS011;5033;46.310;11.214;2023-05-03T13:06:35;0.70;;;0.70;;
9986;SDS011;5033;46.310;11.214;2023-05-03T13:09:02;0.70;;;0.70;;
9986;SDS011;5033;46.310;11.214;2023-05-03T13:11:31;0.70;;;0.70;;
9986;SDS011;5033;46.310;11.214;2023-05-03T13:13:58;0.60;;;0.60;;
9986;SDS011;5033;46.310;11.214;2023-05-03T13:16:27;0.60;;;0.60;;
9986;SDS011;5033;46.310;11.214;2023-05-03T13:18:56;1.73;;;0.80;;
9986;SDS011;5033;46.310;11.214;2023-05-03T13:21:23;0.70;;;0.70;;
9986;SDS011;5033;46.310;11.214;2023-05-03T13:23:52;0.60;;;0.60;;
9986;SDS011;5033;46.310;11.214;2023-05-03T13:26:20;1.60;;;0.80;;
9986;SDS011;5033;46.310;11.214;2023-05-03T13:28:53;0.90;;;0.75;;
9986;SDS011;5033;46.310;11.214;2023-05-03T13:31:20;0.73;;;0.73;;
9986;SDS011;5033;46.310;11.214;2023-05-03T13:33:49;1.00;;;0.90;;
9986;SDS011;5033;46.310;11.214;2023-05-03T13:36:18;2.30;;;1.15;;
9986;SDS011;5033;46.310;11.214;2023-05-03T13:38:46;0.90;;;0.90;;
9986;SDS011;5033;46.310;11.214;2023-05-03T13:41:13;0.77;;;0.77;;
9986;SDS011;5033;46.310;11.214;2023-05-03T13:43:40;0.77;;;0.77;;
9986;SDS011;5033;46.310;11.214;2023-05-03T13:46:07;0.70;;;0.70;;
9986;SDS011;5033;46.310;11.214;2023-05-03T13:48:34;1.13;;;0.88;;
9986;SDS011;5033;46.310;11.214;2023-05-03T13:51:07;0.93;;;0.70;;
9986;SDS011;5033;46.310;11.214;2023-05-03T13:53:34;0.80;;;0.80;;
9986;SDS011;5033;46.310;11.214;2023-05-03T13:56:01;0.80;;;0.80;;
9986;SDS011;5033;46.310;11.214;2023-05-03T13:58:28;0.80;;;0.80;;
9986;SDS011;5033;46.310;11.214;2023-05-03T14:00:55;0.80;;;0.80;;
9986;SDS011;5033;46.310;11.214;2023-05-03T14:03:22;1.25;;;1.05;;
9986;SDS011;5033;46.310;11.214;2023-05-03T14:05:49;1.15;;;1.00;;
9986;SDS011;5033;46.310;11.214;2023-05-03T14:08:20;0.98;;;0.98;;
9986;SDS011;5033;46.310;11.214;2023-05-03T14:10:47;1.30;;;1.20;;
9986;SDS011;5033;46.310;11.214;2023-05-03T14:13:14;1.13;;;1.13;;
9986;SDS011;5033;46.310;11.214;2023-05-03T14:15:42;1.10;;;1.00;;
9986;SDS011;5033;46.310;11.214;2023-05-03T14:18:12;1.38;;;1.00;;
9986;SDS011;5033;46.310;11.214;2023-05-03T14:20:39;1.88;;;0.95;;
9986;SDS011;5033;46.310;11.214;2023-05-03T14:23:06;1.00;;;1.00;;
9986;SDS011;5033;46.310;11.214;2023-05-03T14:25:34;1.60;;;1.05;;
9986;SDS011;5033;46.310;11.214;2023-05-03T14:28:01;1.20;;;1.10;;
9986;SDS011;5033;46.310;11.214;2023-05-03T14:30:29;2.75;;;0.98;;
9986;SDS011;5033;46.310;11.214;2023-05-03T14:32:56;0.90;;;0.90;;
9986;SDS011;5033;46.310;11.214;2023-05-03T14:35:23;0.90;;;0.90;;
9986;SDS011;5033;46.310;11.214;2023-05-03T14:37:50;0.80;;;0.80;;
9986;SDS011;5033;46.310;11.214;2023-05-03T14:40:17;1.05;;;1.00;;
9986;SDS011;5033;46.310;11.214;2023-05-03T14:42:46;1.20;;;1.10;;
9986;SDS011;5033;46.310;11.214;2023-05-03T14:45:13;4.03;;;0.90;;
9986;SDS011;5033;46.310;11.214;2023-05-03T14:47:40;0.80;;;0.80;;
9986;SDS011;5033;46.310;11.214;2023-05-03T14:50:07;2.05;;;1.00;;
9986;SDS011;5033;46.310;11.214;2023-05-03T14:52:34;0.90;;;0.82;;
9986;SDS011;5033;46.310;11.214;2023-05-03T14:55:02;1.60;;;1.15;;
9986;SDS011;5033;46.310;11.214;2023-05-03T14:57:30;1.08;;;1.00;;
9986;SDS011;5033;46.310;11.214;2023-05-03T15:00:02;0.88;;;0.88;;
9986;SDS011;5033;46.310;11.214;2023-05-03T15:02:33;0.85;;;0.80;;
9986;SDS011;5033;46.310;11.214;2023-05-03T15:05:00;2.60;;;1.05;;
9986;SDS011;5033;46.310;11.214;2023-05-03T15:07:27;1.08;;;1.05;;
9986;SDS011;5033;46.310;11.214;2023-05-03T15:09:56;2.65;;;1.08;;
9986;SDS011;5033;46.310;11.214;2023-05-03T15:12:25;1.08;;;1.08;;
9986;SDS011;5033;46.310;11.214;2023-05-03T15:14:52;1.17;;;1.08;;
9986;SDS011;5033;46.310;11.214;2023-05-03T15:17:20;1.48;;;1.20;;
9986;SDS011;5033;46.310;11.214;2023-05-03T15:19:47;0.98;;;0.98;;
9986;SDS011;5033;46.310;11.214;2023-05-03T15:22:14;1.48;;;1.27;;
9986;SDS011;5033;46.310;11.214;2023-05-03T15:24:44;1.45;;;1.35;;
9986;SDS011;5033;46.310;11.214;2023-05-03T15:27:11;0.90;;;0.90;;
9986;SDS011;5033;46.310;11.214;2023-05-03T15:29:39;1.10;;;1.10;;
9986;SDS011;5033;46.310;11.214;2023-05-03T15:32:06;1.30;;;1.20;;
9986;SDS011;5033;46.310;11.214;2023-05-03T15:34:35;1.45;;;1.35;;
9986;SDS011;5033;46.310;11.214;2023-05-03T15:37:02;1.05;;;1.05;;
9986;SDS011;5033;46.310;11.214;2023-05-03T15:39:29;1.30;;;1.15;;
9986;SDS011;5033;46.310;11.214;2023-05-03T15:41:56;1.52;;;1.10;;
9986;SDS011;5033;46.310;11.214;2023-05-03T15:44:23;1.38;;;1.27;;
9986;SDS011;5033;46.310;11.214;2023-05-03T15:46:50;2.10;;;1.30;;